MDT,Max TemperatureF,Mean TemperatureF,Min TemperatureF,Max Dew PointF,MeanDew PointF,Min DewpointF,Max Humidity, Mean Humidity, Min Humidity, Max Sea Level PressureIn, Mean Sea Level PressureIn, Min Sea Level PressureIn, Max VisibilityMiles, Mean VisibilityMiles, Min VisibilityMiles, Max Wind SpeedMPH, Mean Wind SpeedMPH, Max Gust SpeedMPH,PrecipitationIn, CloudCover, Events, WindDirDegrees
2013-6-1,59,44,28,22,18,12,63,40,17,30.08,30.02,29.97,10,10,10,17,8,29,0.00,0,,351
2013-6-2,66,46,26,26,15,3,81,46,10,30.24,29.91,29.75,10,10,10,22,6,28,0.00,0,,249
2013-6-3,66,50,34,31,20,11,53,33,12,30.18,29.74,29.67,10,10,10,35,7,48,T,1,,297
2013-6-4,63,51,39,31,24,13,58,38,18,30.31,29.88,29.74,10,10,10,29,9,41,T,4,Rain-Thunderstorm,306
2013-6-5,64,48,32,37,26,11,82,49,15,30.31,29.97,29.78,10,10,10,22,7,31,0.00,1,,298
2013-6-6,65,47,28,34,24,19,75,47,19,30.34,29.96,29.88,10,9,2,20,6,30,T,2,,12
2013-6-7,64,48,32,39,31,25,89,57,25,30.38,29.98,29.77,10,9,2,26,7,40,0.01,4,Rain-Thunderstorm,354
2013-6-8,67,54,40,31,28,22,60,40,19,30.20,29.76,29.67,10,10,10,25,11,33,T,1,,343
2013-6-9,73,55,36,28,24,17,59,36,13,29.92,29.87,29.81,10,10,10,22,8,31,0.00,0,,337
2013-6-10,77,56,35,30,22,13,70,40,9,30.39,29.84,29.74,10,10,10,21,7,32,0.00,0,,268
2013-6-11,72,56,39,26,15,2,49,28,7,29.91,29.79,29.72,10,10,10,26,9,39,0.00,0,,255
2013-6-12,76,57,38,26,18,11,48,29,9,29.99,29.92,29.86,10,10,10,22,7,35,0.00,0,,343
2013-6-13,71,54,37,35,24,18,49,32,14,30.41,29.95,29.83,10,10,10,31,7,47,0.01,2,Rain-Thunderstorm,180
2013-6-14,72,56,39,35,19,4,65,36,7,29.86,29.80,29.74,10,10,10,22,8,29,0.00,0,,284
2013-6-15,69,50,30,24,18,7,56,33,10,30.37,29.92,29.81,10,10,10,23,8,37,0.00,1,,299
2013-6-16,61,49,36,37,31,25,85,56,27,30.51,30.10,29.90,10,10,8,35,8,44,T,2,Rain-Thunderstorm,356
2013-6-17,67,49,31,39,30,19,85,51,16,30.44,30.16,29.95,10,10,4,38,5,46,0.05,3,Rain-Thunderstorm,71
2013-6-18,68,52,35,38,27,15,92,53,13,30.28,29.98,29.75,10,10,10,25,5,32,T,4,Rain-Thunderstorm,126
2013-6-19,72,52,31,32,12,-6,70,38,5,30.17,29.73,29.63,10,10,10,30,7,37,0.00,0,,201
2013-6-20,72,54,36,18,10,3,35,21,7,30.23,29.74,29.62,10,10,10,25,9,39,0.00,0,,202
2013-6-21,72,52,32,19,12,1,44,25,6,29.80,29.76,29.71,10,10,10,22,6,32,0.00,0,,266
2013-6-22,69,50,30,18,13,5,51,30,8,30.24,29.76,29.69,10,10,10,23,8,30,0.00,1,,250
2013-6-23,69,51,32,26,18,10,51,31,11,29.83,29.77,29.70,10,9,5,31,6,44,T,2,,95
2013-6-24,68,51,34,31,15,1,56,32,8,29.81,29.74,29.70,10,10,7,25,7,37,0.00,1,,229
2013-6-25,69,56,43,28,22,16,45,32,19,29.95,29.80,29.68,10,10,10,20,8,30,0.00,1,,338
2013-6-26,77,57,37,32,28,24,64,40,16,30.03,29.97,29.93,10,10,10,14,6,20,0.00,0,,350
2013-6-27,81,60,39,31,25,18,57,35,12,30.10,30.05,29.99,10,10,10,16,7,24,0.00,1,,28
2013-6-28,79,61,43,39,31,19,70,41,12,30.60,30.08,29.97,10,10,6,5,7,6,0.00,1,Thunderstorm,12
2013-6-29,76,59,42,47,36,25,89,53,16,30.51,30.10,29.93,10,10,5,22,7,30,0.06,2,Rain-Thunderstorm,28
2013-6-30,70,54,38,46,38,28,92,60,28,30.51,30.15,29.97,10,10,4,35,8,52,0.03,3,Rain-Thunderstorm,9